Time;durP1;ratioP1;P1;durP2;ratioP2;P2;SDS_P1;SDS_P2;PMS_P1;PMS_P2;Temp;Humidity;BMP_temperature;BMP_pressure;BME280_temperature;BME280_humidity;BME280_pressure;Samples;Min_cycle;Max_cycle;Signal;HPM_P1;HPM_P2
2023/06/22 00:00:12;;;;;;;13.87;12.67;;;21.00;99.90;;;;;;5053541;28;20951;-61
2023/06/22 00:02:39;;;;;;;13.67;12.27;;;21.00;99.90;;;;;;5054665;28;20453;-61
2023/06/22 00:05:08;;;;;;;14.20;12.87;;;21.00;99.90;;;;;;5053472;28;20472;-60
2023/06/22 00:07:35;;;;;;;15.10;13.60;;;21.00;99.90;;;;;;5054030;28;20500;-60
2023/06/22 00:10:01;;;;;;;14.73;13.23;;;20.90;99.90;;;;;;5053544;28;20449;-60
2023/06/22 00:12:28;;;;;;;15.90;14.50;;;20.90;99.90;;;;;;5053011;28;20445;-61
2023/06/22 00:14:55;;;;;;;16.10;14.60;;;20.90;99.90;;;;;;5053847;28;20465;-60
2023/06/22 00:17:22;;;;;;;17.20;15.50;;;20.90;99.90;;;;;;5053531;28;20480;-61
2023/06/22 00:19:53;;;;;;;15.80;14.40;;;20.90;99.90;;;;;;5054198;28;20476;-62
2023/06/22 00:22:27;;;;;;;16.23;14.63;;;20.90;99.90;;;;;;5053969;28;20439;-60
2023/06/22 00:24:54;;;;;;;17.20;15.70;;;20.80;99.90;;;;;;5053643;28;20476;-60
2023/06/22 00:27:21;;;;;;;16.07;14.70;;;20.80;99.90;;;;;;5055086;28;20448;-60
2023/06/22 00:29:48;;;;;;;15.37;14.00;;;20.80;99.90;;;;;;5058102;28;20808;-61
2023/06/22 00:32:15;;;;;;;16.97;15.43;;;20.70;99.90;;;;;;5058113;28;20934;-61
2023/06/22 00:34:42;;;;;;;17.30;15.43;;;20.70;99.90;;;;;;5057970;28;20552;-60
2023/06/22 00:37:11;;;;;;;15.93;14.40;;;20.60;99.90;;;;;;5057994;28;20484;-60
2023/06/22 00:39:39;;;;;;;15.03;13.53;;;20.50;99.90;;;;;;5058431;28;20449;-60
2023/06/22 00:42:06;;;;;;;15.23;13.83;;;20.50;99.90;;;;;;5057879;28;20972;-61
2023/06/22 00:44:33;;;;;;;15.47;14.10;;;20.40;99.90;;;;;;5058468;28;20779;-62
2023/06/22 00:47:01;;;;;;;17.27;15.77;;;20.30;99.90;;;;;;5057889;28;20824;-61
2023/06/22 00:49:27;;;;;;;17.10;15.60;;;20.30;99.90;;;;;;5059062;28;20509;-61
2023/06/22 00:51:54;;;;;;;17.40;15.77;;;20.20;99.90;;;;;;5057890;28;20950;-60
2023/06/22 00:54:24;;;;;;;16.57;15.07;;;20.10;99.90;;;;;;5057016;28;20455;-61
2023/06/22 00:56:56;;;;;;;16.87;15.17;;;20.00;99.90;;;;;;5057447;28;20467;-61
2023/06/22 00:59:23;;;;;;;15.67;14.17;;;19.90;99.90;;;;;;5057381;28;20428;-61
2023/06/22 01:01:49;;;;;;;16.97;15.10;;;19.80;99.90;;;;;;5056769;28;20942;-60
2023/06/22 01:04:16;;;;;;;17.57;15.70;;;19.80;99.90;;;;;;5057513;28;20444;-61
2023/06/22 01:07:04;;;;;;;16.10;14.70;;;19.70;99.90;;;;;;5057889;28;20454;-60
2023/06/22 01:09:36;;;;;;;16.10;14.80;;;19.60;99.90;;;;;;5056890;28;20427;-61
2023/06/22 01:12:08;;;;;;;14.27;13.00;;;19.50;99.90;;;;;;5057301;28;20437;-60
2023/06/22 01:14:42;;;;;;;16.03;14.63;;;19.50;99.90;;;;;;5056843;28;20468;-59
2023/06/22 01:17:10;;;;;;;16.37;14.90;;;19.40;99.90;;;;;;5056466;28;20472;-61
2023/06/22 01:19:43;;;;;;;16.70;15.00;;;19.40;99.90;;;;;;5057219;28;20624;-61
2023/06/22 01:22:15;;;;;;;15.83;14.33;;;19.30;99.90;;;;;;5057379;28;20804;-60
2023/06/22 01:24:52;;;;;;;14.90;13.60;;;19.30;99.90;;;;;;5056741;28;20558;-61
2023/06/22 01:27:32;;;;;;;16.70;15.20;;;19.20;99.90;;;;;;5056948;28;20781;-60
2023/06/22 01:30:05;;;;;;;16.40;15.00;;;19.10;99.90;;;;;;5056772;28;20424;-61
2023/06/22 01:32:34;;;;;;;16.40;14.90;;;19.10;99.90;;;;;;5056052;28;20432;-61
2023/06/22 01:35:04;;;;;;;15.50;14.10;;;19.10;99.90;;;;;;5056686;28;20468;-62
2023/06/22 01:37:32;;;;;;;16.10;14.60;;;19.00;99.90;;;;;;5056300;28;20460;-61
2023/06/22 01:40:00;;;;;;;16.70;15.10;;;19.00;99.90;;;;;;5055435;28;20926;-59
2023/06/22 01:42:27;;;;;;;16.40;14.83;;;18.90;99.90;;;;;;5057606;28;20446;-60
2023/06/22 01:44:54;;;;;;;15.30;13.80;;;18.90;99.90;;;;;;5056610;28;20464;-59
2023/06/22 01:47:23;;;;;;;16.40;14.90;;;18.90;99.90;;;;;;5056310;28;20440;-60
2023/06/22 01:49:52;;;;;;;15.57;14.17;;;18.90;99.90;;;;;;5056507;28;20981;-60
2023/06/22 01:52:20;;;;;;;17.47;14.90;;;18.90;99.90;;;;;;5062531;28;20903;-60
2023/06/22 01:54:48;;;;;;;15.90;14.50;;;18.90;99.90;;;;;;5063373;28;20468;-59
2023/06/22 01:57:15;;;;;;;16.53;14.97;;;18.90;99.90;;;;;;5057770;28;20484;-61
2023/06/22 01:59:50;;;;;;;17.00;15.47;;;18.80;99.90;;;;;;5056576;28;20452;-62
2023/06/22 02:02:26;;;;;;;15.70;14.33;;;18.80;99.90;;;;;;5055732;28;20430;-61
2023/06/22 02:04:58;;;;;;;16.37;14.87;;;18.80;99.90;;;;;;5056280;28;20480;-61
2023/06/22 02:07:29;;;;;;;15.97;14.27;;;18.80;99.90;;;;;;5096096;22;20491;-60
2023/06/22 02:09:58;;;;;;;14.60;13.30;;;18.80;99.90;;;;;;5075471;28;20427;-59
2023/06/22 02:12:27;;;;;;;15.50;14.10;;;18.70;99.90;;;;;;5074875;28;20439;-59
2023/06/22 02:14:54;;;;;;;14.43;13.03;;;18.70;99.90;;;;;;5075536;28;20439;-59
2023/06/22 02:17:24;;;;;;;14.90;13.30;;;18.80;99.90;;;;;;5075095;28;20489;-59
2023/06/22 02:19:51;;;;;;;15.33;13.83;;;18.80;99.90;;;;;;5074874;28;20986;-58
2023/06/22 02:22:17;;;;;;;14.40;13.00;;;18.80;99.90;;;;;;5074720;28;20930;-59
2023/06/22 02:24:44;;;;;;;13.77;12.57;;;18.80;99.90;;;;;;5075043;28;20447;-59
2023/06/22 02:27:12;;;;;;;14.93;12.67;;;18.80;99.90;;;;;;5074557;28;20852;-58
2023/06/22 02:29:39;;;;;;;15.30;13.80;;;18.80;99.90;;;;;;5075160;28;20816;-59
2023/06/22 02:32:06;;;;;;;13.97;12.50;;;18.80;99.90;;;;;;5074843;28;21024;-59
2023/06/22 02:34:34;;;;;;;14.77;13.37;;;18.80;99.90;;;;;;5074950;28;20441;-59
2023/06/22 02:37:02;;;;;;;13.73;12.27;;;18.80;99.90;;;;;;5074484;28;20483;-59
2023/06/22 02:39:29;;;;;;;14.43;13.13;;;18.90;99.90;;;;;;5074633;28;20447;-59
2023/06/22 02:41:56;;;;;;;13.90;12.50;;;18.80;99.90;;;;;;5074580;28;20450;-59
2023/06/22 02:44:23;;;;;;;14.07;12.80;;;18.80;99.90;;;;;;5074409;28;20450;-60
2023/06/22 02:46:50;;;;;;;12.77;11.57;;;18.80;99.90;;;;;;5074062;28;20479;-60
2023/06/22 02:49:17;;;;;;;14.67;13.23;;;18.80;99.90;;;;;;5074281;28;20447;-60
2023/06/22 02:51:46;;;;;;;13.10;11.90;;;18.80;99.90;;;;;;5072913;28;20933;-60
2023/06/22 02:54:13;;;;;;;13.90;12.70;;;18.70;99.90;;;;;;5074232;28;20443;-59
2023/06/22 02:56:44;;;;;;;14.13;12.77;;;18.70;99.90;;;;;;5073896;28;20463;-59
2023/06/22 02:59:11;;;;;;;13.87;12.47;;;18.60;99.90;;;;;;5073946;28;20427;-58
2023/06/22 03:01:39;;;;;;;14.87;12.90;;;18.60;99.90;;;;;;5073932;28;20949;-59
2023/06/22 03:04:07;;;;;;;14.63;13.33;;;18.60;99.90;;;;;;5074307;28;20444;-59
2023/06/22 03:06:34;;;;;;;14.73;13.30;;;18.60;99.90;;;;;;5073539;28;20474;-59
2023/06/22 03:09:04;;;;;;;14.83;13.53;;;18.60;99.90;;;;;;5075550;28;20435;-59
2023/06/22 03:11:31;;;;;;;15.30;13.77;;;18.50;99.90;;;;;;5073786;28;20900;-59
2023/06/22 03:13:58;;;;;;;14.53;13.23;;;18.50;99.90;;;;;;5073393;28;20804;-59
2023/06/22 03:16:25;;;;;;;16.13;14.40;;;18.50;99.90;;;;;;5073838;28;20464;-59
2023/06/22 03:18:53;;;;;;;14.13;12.77;;;18.50;99.90;;;;;;5073798;28;20479;-59
2023/06/22 03:21:20;;;;;;;14.27;12.87;;;18.50;99.90;;;;;;5073616;28;20447;-59
2023/06/22 03:23:46;;;;;;;14.63;13.23;;;18.60;99.90;;;;;;5073664;28;20443;-59
2023/06/22 03:26:17;;;;;;;15.00;13.60;;;18.60;99.90;;;;;;5073867;28;20469;-59
2023/06/22 03:28:44;;;;;;;14.73;13.33;;;18.60;99.90;;;;;;5073945;28;20431;-59
2023/06/22 03:31:11;;;;;;;15.33;13.83;;;18.70;99.90;;;;;;5073901;28;20443;-60
2023/06/22 03:33:38;;;;;;;14.73;13.40;;;18.80;99.90;;;;;;5073444;28;20447;-59
2023/06/22 03:36:05;;;;;;;15.07;13.47;;;18.80;99.90;;;;;;5073922;28;20525;-58
2023/06/22 03:38:32;;;;;;;15.17;13.83;;;18.80;99.90;;;;;;5073748;28;20475;-58
2023/06/22 03:40:58;;;;;;;14.80;13.50;;;18.90;99.90;;;;;;5073586;28;20462;-59
2023/06/22 03:43:26;;;;;;;14.80;13.40;;;18.90;99.90;;;;;;5073415;28;20771;-59
2023/06/22 03:45:53;;;;;;;13.97;12.67;;;19.00;99.90;;;;;;5073062;28;20834;-59
2023/06/22 03:48:20;;;;;;;14.67;13.27;;;19.00;99.90;;;;;;5073030;28;20443;-58
2023/06/22 03:50:47;;;;;;;13.37;12.17;;;19.10;99.90;;;;;;5073349;28;20447;-59
2023/06/22 03:53:14;;;;;;;14.90;13.57;;;19.10;99.90;;;;;;5073332;28;20439;-59
2023/06/22 03:55:49;;;;;;;14.67;13.37;;;19.30;99.90;;;;;;5073155;28;20467;-59
2023/06/22 03:58:15;;;;;;;14.40;13.00;;;19.30;99.90;;;;;;5073197;28;20462;-60
2023/06/22 04:00:43;;;;;;;16.17;12.40;;;19.40;99.90;;;;;;5073050;28;20450;-57
2023/06/22 04:03:11;;;;;;;15.13;13.73;;;19.70;99.90;;;;;;5073013;28;20450;-59
2023/06/22 04:05:39;;;;;;;15.63;13.73;;;19.90;99.90;;;;;;5072489;28;20478;-59
2023/06/22 04:08:06;;;;;;;15.40;14.00;;;20.20;99.90;;;;;;5073683;28;20424;-60
2023/06/22 04:11:53;;;;;;;14.30;12.77;;;20.70;99.90;;;;;;5091316;28;20550;-61
2023/06/22 04:14:20;;;;;;;13.60;12.40;;;20.80;99.90;;;;;;5091045;28;20827;-59
2023/06/22 04:16:47;;;;;;;15.17;13.17;;;20.80;99.90;;;;;;5090302;28;20980;-59
2023/06/22 04:19:16;;;;;;;14.00;12.70;;;20.90;99.90;;;;;;5090550;28;20536;-59
2023/06/22 04:21:44;;;;;;;15.00;13.60;;;21.00;99.90;;;;;;5090427;28;21099;-60
2023/06/22 04:24:11;;;;;;;15.00;13.60;;;21.20;99.90;;;;;;5090634;28;20504;-59
2023/06/22 04:26:38;;;;;;;14.60;13.07;;;21.40;99.90;;;;;;5090287;28;20469;-59
2023/06/22 04:29:06;;;;;;;15.10;13.80;;;21.60;99.70;;;;;;5090323;28;20960;-61
2023/06/22 04:31:36;;;;;;;16.43;13.50;;;21.60;99.10;;;;;;5090327;28;20472;-59
2023/06/22 04:34:05;;;;;;;14.07;12.77;;;21.50;98.50;;;;;;5090795;28;20448;-60
2023/06/22 04:36:37;;;;;;;18.03;13.67;;;21.30;98.70;;;;;;5090275;28;21051;-59
2023/06/22 04:39:05;;;;;;;14.07;12.83;;;21.20;99.10;;;;;;5090153;28;20433;-59
2023/06/22 04:41:41;;;;;;;14.83;13.27;;;21.20;99.20;;;;;;5090154;28;20436;-59
2023/06/22 04:44:10;;;;;;;14.73;13.23;;;21.30;99.20;;;;;;5090078;28;20464;-59
2023/06/22 04:46:38;;;;;;;13.77;12.50;;;21.60;98.80;;;;;;5089815;28;20538;-59
2023/06/22 04:49:09;;;;;;;14.20;12.80;;;21.80;97.90;;;;;;5090236;28;20467;-58
2023/06/22 04:51:40;;;;;;;11.83;10.80;;;22.20;96.80;;;;;;5090347;28;20565;-59
2023/06/22 04:54:07;;;;;;;12.30;11.20;;;22.40;95.50;;;;;;5089829;28;20431;-58
2023/06/22 04:56:34;;;;;;;12.67;11.57;;;22.50;94.40;;;;;;5089909;28;20459;-58
2023/06/22 04:59:02;;;;;;;12.40;11.20;;;22.60;93.50;;;;;;5090175;28;20442;-59
2023/06/22 05:01:31;;;;;;;13.07;11.83;;;22.50;93.10;;;;;;5089911;28;20450;-59
2023/06/22 05:04:00;;;;;;;11.30;10.20;;;22.40;93.10;;;;;;5090227;28;20543;-59
2023/06/22 05:06:28;;;;;;;12.97;11.47;;;22.30;93.20;;;;;;5089783;28;20470;-59
2023/06/22 05:08:57;;;;;;;14.13;11.83;;;22.30;93.50;;;;;;5089559;28;20908;-58
2023/06/22 05:11:24;;;;;;;12.03;10.77;;;22.50;93.00;;;;;;5089492;28;20536;-58
2023/06/22 05:13:51;;;;;;;15.50;11.77;;;22.70;92.40;;;;;;5089749;28;20444;-58
2023/06/22 05:16:23;;;;;;;14.83;11.93;;;23.00;91.60;;;;;;5089401;28;20471;-57
2023/06/22 05:18:54;;;;;;;13.57;12.17;;;23.20;90.70;;;;;;5089733;28;20426;-59
2023/06/22 05:21:24;;;;;;;12.70;11.50;;;23.40;89.90;;;;;;5086611;28;20487;-59
2023/06/22 05:23:51;;;;;;;12.10;10.80;;;23.60;88.20;;;;;;5076180;28;20511;-59
2023/06/22 05:26:18;;;;;;;17.17;11.63;;;23.70;87.20;;;;;;5075259;28;20984;-59
2023/06/22 05:28:46;;;;;;;12.47;11.13;;;23.90;85.70;;;;;;5075885;28;20443;-59
2023/06/22 05:31:13;;;;;;;14.10;11.23;;;24.20;83.60;;;;;;5075001;28;20484;-58
2023/06/22 05:33:40;;;;;;;15.23;10.97;;;24.20;81.50;;;;;;5075268;28;21019;-59
2023/06/22 05:36:08;;;;;;;14.87;11.70;;;24.30;80.30;;;;;;5075272;28;21041;-59
2023/06/22 05:38:35;;;;;;;12.00;11.00;;;24.40;79.30;;;;;;5076091;28;20468;-58
2023/06/22 05:41:02;;;;;;;11.50;10.37;;;24.60;78.10;;;;;;5075460;28;20441;-58
2023/06/22 05:43:29;;;;;;;12.70;10.80;;;24.50;76.90;;;;;;5075430;28;20535;-59
2023/06/22 05:45:56;;;;;;;14.13;10.80;;;24.50;76.60;;;;;;5075545;28;20468;-61
2023/06/22 05:48:23;;;;;;;11.70;10.60;;;24.30;76.50;;;;;;5075614;28;20828;-56
2023/06/22 05:50:49;;;;;;;12.70;10.23;;;24.30;76.60;;;;;;5075397;28;20564;-60
2023/06/22 05:53:18;;;;;;;11.93;9.53;;;24.30;76.20;;;;;;5075280;28;20797;-59
2023/06/22 05:55:44;;;;;;;12.17;10.13;;;24.30;75.70;;;;;;5075395;28;20854;-59
2023/06/22 05:58:13;;;;;;;12.40;11.20;;;24.40;75.10;;;;;;5075291;28;20454;-60
2023/06/22 06:00:39;;;;;;;13.50;10.17;;;24.40;74.90;;;;;;5075858;28;20550;-61
2023/06/22 06:03:07;;;;;;;11.27;9.80;;;24.40;74.50;;;;;;5075096;28;20446;-59
2023/06/22 06:05:35;;;;;;;10.27;9.27;;;24.50;74.10;;;;;;5075511;28;20442;-58
2023/06/22 06:08:04;;;;;;;11.33;8.47;;;24.50;73.70;;;;;;5075385;28;20440;-58
2023/06/22 06:10:32;;;;;;;10.70;9.53;;;24.60;73.70;;;;;;5074656;28;20509;-58
2023/06/22 06:13:01;;;;;;;11.17;9.53;;;24.80;73.40;;;;;;5075346;28;20449;-59
2023/06/22 06:15:28;;;;;;;12.07;9.80;;;25.00;72.20;;;;;;5075331;28;20501;-60
2023/06/22 06:17:55;;;;;;;11.93;9.87;;;25.00;71.00;;;;;;5075266;28;20447;-59
2023/06/22 06:20:23;;;;;;;10.17;9.10;;;25.00;70.60;;;;;;5075065;28;20455;-60
2023/06/22 06:22:51;;;;;;;10.20;9.10;;;25.10;70.20;;;;;;5074761;28;20455;-60
2023/06/22 06:25:19;;;;;;;11.67;10.40;;;25.10;69.50;;;;;;5074498;28;20451;-60
2023/06/22 06:27:48;;;;;;;11.77;9.30;;;25.30;68.80;;;;;;5075344;28;20563;-59
2023/06/22 06:30:16;;;;;;;10.63;8.67;;;25.30;68.10;;;;;;5075373;28;20539;-59
2023/06/22 06:32:45;;;;;;;9.90;8.10;;;25.40;67.30;;;;;;5075140;28;20940;-59
2023/06/22 06:35:13;;;;;;;12.27;8.50;;;25.50;66.70;;;;;;5074633;28;20819;-60
2023/06/22 06:37:41;;;;;;;9.30;8.40;;;25.60;66.00;;;;;;5074922;28;20471;-59
2023/06/22 06:40:10;;;;;;;8.87;7.93;;;25.60;65.20;;;;;;5075171;28;20449;-59
2023/06/22 06:42:40;;;;;;;11.77;8.10;;;25.50;64.80;;;;;;5074890;28;20894;-59
2023/06/22 06:45:09;;;;;;;10.20;7.33;;;25.50;64.50;;;;;;5075279;28;20448;-58
2023/06/22 06:47:36;;;;;;;9.27;7.70;;;25.50;64.00;;;;;;5074596;28;20493;-58
2023/06/22 06:50:04;;;;;;;9.23;8.30;;;25.50;63.80;;;;;;5074889;28;20440;-59
2023/06/22 06:52:31;;;;;;;11.23;7.93;;;25.60;63.50;;;;;;5074835;28;20957;-59
2023/06/22 06:54:58;;;;;;;9.40;8.50;;;25.60;63.20;;;;;;5074409;28;20446;-59
2023/06/22 06:57:28;;;;;;;11.27;8.73;;;25.50;63.10;;;;;;5074591;28;20470;-58
2023/06/22 06:59:56;;;;;;;10.90;8.00;;;25.50;63.20;;;;;;5074726;28;20497;-59
2023/06/22 07:02:25;;;;;;;9.40;8.00;;;25.40;63.60;;;;;;5074012;28;20928;-59
2023/06/22 07:04:51;;;;;;;10.77;8.20;;;25.50;63.70;;;;;;5075378;28;20446;-59
2023/06/22 07:07:18;;;;;;;8.30;7.50;;;25.50;63.80;;;;;;5074864;28;20463;-58
2023/06/22 07:09:45;;;;;;;14.80;7.97;;;25.50;63.80;;;;;;5074797;28;20470;-59
2023/06/22 07:12:12;;;;;;;12.13;8.00;;;25.60;63.60;;;;;;5073917;28;20471;-59
2023/06/22 07:14:38;;;;;;;9.50;8.20;;;25.70;63.60;;;;;;5074041;28;20441;-58
2023/06/22 07:17:05;;;;;;;9.00;7.40;;;25.90;63.40;;;;;;5074116;28;20471;-58
2023/06/22 07:19:34;;;;;;;9.60;7.77;;;25.90;62.90;;;;;;5073991;28;20452;-58
2023/06/22 07:22:01;;;;;;;8.20;7.40;;;26.00;62.80;;;;;;5073271;28;20443;-58
2023/06/22 07:24:28;;;;;;;9.83;6.80;;;26.00;62.70;;;;;;5074856;28;20452;-58
2023/06/22 07:26:57;;;;;;;6.97;6.43;;;26.10;62.40;;;;;;5073723;28;20545;-58
2023/06/22 07:29:24;;;;;;;9.00;6.27;;;26.20;61.80;;;;;;5074040;28;20456;-57
2023/06/22 07:31:52;;;;;;;7.33;6.63;;;26.30;61.10;;;;;;5074651;28;20509;-57
2023/06/22 07:34:19;;;;;;;11.03;7.10;;;26.60;60.10;;;;;;5074649;28;20456;-58
2023/06/22 07:36:47;;;;;;;7.30;6.43;;;26.80;59.40;;;;;;5073697;28;20456;-59
2023/06/22 07:39:14;;;;;;;7.50;6.80;;;27.00;58.70;;;;;;5073354;28;20442;-58
2023/06/22 07:41:41;;;;;;;7.33;6.63;;;27.30;58.10;;;;;;5073253;28;20438;-59
2023/06/22 07:44:08;;;;;;;9.13;7.83;;;27.40;57.40;;;;;;5073436;28;20443;-59
2023/06/22 07:46:35;;;;;;;8.27;7.33;;;27.30;57.00;;;;;;5072815;28;20466;-59
2023/06/22 07:49:03;;;;;;;8.40;7.50;;;27.20;57.10;;;;;;5072996;28;20452;-59
2023/06/22 07:51:30;;;;;;;8.13;7.33;;;27.10;57.10;;;;;;5073468;28;20559;-59
2023/06/22 07:53:58;;;;;;;9.20;6.97;;;27.10;57.10;;;;;;5073696;28;21034;-59
2023/06/22 07:56:25;;;;;;;7.40;6.80;;;27.00;57.30;;;;;;5074476;28;20472;-59
2023/06/22 07:58:53;;;;;;;7.67;6.97;;;27.00;57.30;;;;;;5074273;28;20461;-58
2023/06/22 08:01:20;;;;;;;8.33;6.57;;;27.10;57.30;;;;;;5075924;28;20809;-59
2023/06/22 08:03:48;;;;;;;7.23;6.63;;;27.10;57.20;;;;;;5074267;28;20927;-58
2023/06/22 08:06:16;;;;;;;7.13;6.53;;;27.00;57.20;;;;;;5073904;28;20483;-58
2023/06/22 08:08:43;;;;;;;7.43;6.73;;;27.10;57.30;;;;;;5074141;28;20838;-59
2023/06/22 08:11:11;;;;;;;7.27;6.57;;;27.10;57.10;;;;;;5072828;28;20578;-59
2023/06/22 08:13:38;;;;;;;7.87;7.07;;;27.10;56.90;;;;;;5073063;28;20451;-59
2023/06/22 08:16:07;;;;;;;7.50;6.70;;;27.10;56.80;;;;;;5072932;28;20474;-59
2023/06/22 08:18:34;;;;;;;9.77;7.27;;;27.20;56.60;;;;;;5073228;28;20493;-59
2023/06/22 08:21:00;;;;;;;8.60;6.97;;;27.20;56.50;;;;;;5073336;28;20477;-59
2023/06/22 08:23:28;;;;;;;11.20;6.60;;;27.20;56.30;;;;;;5073408;28;20448;-59
2023/06/22 08:25:54;;;;;;;9.03;8.00;;;27.20;56.90;;;;;;5073400;28;20534;-59
2023/06/22 08:28:22;;;;;;;7.87;7.17;;;27.30;56.20;;;;;;5073014;28;20473;-59
2023/06/22 08:30:49;;;;;;;8.10;7.30;;;27.50;56.00;;;;;;5072508;28;20448;-59
2023/06/22 08:33:17;;;;;;;8.93;7.37;;;27.50;55.90;;;;;;5073442;28;20446;-59
2023/06/22 08:35:44;;;;;;;10.87;8.50;;;27.60;55.90;;;;;;5073327;28;20472;-59
2023/06/22 08:38:13;;;;;;;8.77;7.87;;;27.50;55.80;;;;;;5073046;28;20475;-58
2023/06/22 08:40:40;;;;;;;8.63;7.83;;;27.40;56.00;;;;;;5074369;28;20447;-60
2023/06/22 08:43:07;;;;;;;7.93;7.20;;;27.40;56.30;;;;;;5075147;28;20879;-60
2023/06/22 08:45:35;;;;;;;10.40;7.67;;;27.40;56.20;;;;;;5073868;28;20452;-59
2023/06/22 08:48:02;;;;;;;10.30;7.83;;;27.50;56.30;;;;;;5074213;28;20439;-60
2023/06/22 08:50:29;;;;;;;8.93;7.77;;;27.50;56.30;;;;;;5073819;28;20817;-59
2023/06/22 08:52:56;;;;;;;8.93;8.17;;;27.50;56.30;;;;;;5073494;28;20592;-59
2023/06/22 08:55:22;;;;;;;8.57;7.80;;;27.70;56.10;;;;;;5073386;28;20444;-58
2023/06/22 08:57:49;;;;;;;8.10;7.40;;;27.70;56.00;;;;;;5076655;28;20493;-60
2023/06/22 09:00:20;;;;;;;9.00;8.20;;;27.60;56.00;;;;;;5077752;28;20446;-58
2023/06/22 09:02:48;;;;;;;9.27;8.37;;;27.70;56.10;;;;;;5077907;28;20441;-59
2023/06/22 09:05:15;;;;;;;9.50;8.30;;;27.80;55.80;;;;;;5077172;28;20455;-59
2023/06/22 09:07:43;;;;;;;9.03;8.20;;;27.90;55.70;;;;;;5077629;28;20813;-60
2023/06/22 09:10:10;;;;;;;8.70;8.00;;;28.00;55.60;;;;;;5077490;28;20522;-60
2023/06/22 09:12:37;;;;;;;8.43;7.63;;;28.00;55.50;;;;;;5077853;28;20494;-60
2023/06/22 09:15:06;;;;;;;9.40;8.53;;;28.00;55.60;;;;;;5077891;28;20524;-59
2023/06/22 09:17:34;;;;;;;9.17;8.47;;;28.10;55.60;;;;;;5077493;28;20523;-60
2023/06/22 09:20:05;;;;;;;9.73;8.90;;;28.30;55.30;;;;;;5077139;28;20544;-59
2023/06/22 09:22:32;;;;;;;10.23;9.23;;;28.50;55.00;;;;;;5077211;28;20434;-60
2023/06/22 09:24:59;;;;;;;9.97;9.17;;;28.70;54.40;;;;;;5077681;28;20439;-59
2023/06/22 09:27:26;;;;;;;10.60;9.57;;;28.70;54.10;;;;;;5077394;28;20546;-59
2023/06/22 09:29:53;;;;;;;10.50;9.60;;;28.90;53.90;;;;;;5076762;28;20999;-60
2023/06/22 09:32:20;;;;;;;10.60;9.67;;;29.10;53.50;;;;;;5076950;28;20477;-61
2023/06/22 09:34:47;;;;;;;10.00;9.10;;;29.10;53.20;;;;;;5075711;28;20452;-60
2023/06/22 09:37:15;;;;;;;11.97;10.77;;;29.20;52.90;;;;;;5076538;28;20475;-60
2023/06/22 09:39:42;;;;;;;11.40;10.30;;;29.30;52.90;;;;;;5076779;28;20451;-60
2023/06/22 09:42:09;;;;;;;10.87;9.87;;;29.20;53.00;;;;;;5075689;28;20922;-60
2023/06/22 09:44:36;;;;;;;11.67;10.67;;;29.20;53.10;;;;;;5075900;28;21016;-58
2023/06/22 09:47:03;;;;;;;11.70;10.60;;;29.30;53.10;;;;;;5076276;28;20460;-60
2023/06/22 09:49:30;;;;;;;11.03;10.03;;;29.20;53.10;;;;;;5075894;28;20454;-60
2023/06/22 09:51:56;;;;;;;12.50;11.30;;;29.10;53.40;;;;;;5075647;28;20686;-59
2023/06/22 09:54:25;;;;;;;12.83;11.53;;;29.10;53.40;;;;;;5075801;28;20965;-59
2023/06/22 09:56:51;;;;;;;11.43;10.33;;;29.20;53.30;;;;;;5075641;28;20972;-59
2023/06/22 09:59:18;;;;;;;14.53;10.10;;;29.30;53.40;;;;;;5076020;28;20447;-59
2023/06/22 10:01:45;;;;;;;13.77;12.47;;;29.40;53.20;;;;;;5075224;28;20817;-59
2023/06/22 10:04:11;;;;;;;12.93;11.73;;;29.60;52.90;;;;;;5075267;28;20940;-59
2023/06/22 10:06:40;;;;;;;13.53;12.13;;;29.60;52.90;;;;;;5075778;28;20832;-59
2023/06/22 10:09:07;;;;;;;12.10;10.80;;;29.50;53.10;;;;;;5075816;28;20556;-57
2023/06/22 10:11:36;;;;;;;17.43;12.80;;;29.30;53.40;;;;;;5075365;28;20460;-60
2023/06/22 10:14:04;;;;;;;13.77;12.47;;;29.20;53.60;;;;;;5076240;28;20495;-59
2023/06/22 10:16:35;;;;;;;15.20;13.60;;;29.10;53.90;;;;;;5075576;28;20977;-59
2023/06/22 10:19:02;;;;;;;15.43;13.30;;;29.00;54.10;;;;;;5075599;28;20488;-59
2023/06/22 10:21:29;;;;;;;13.97;12.67;;;29.00;54.10;;;;;;5075305;28;20532;-60
2023/06/22 10:23:56;;;;;;;14.63;13.30;;;29.00;54.20;;;;;;5075665;28;20453;-59
2023/06/22 10:26:23;;;;;;;13.57;12.17;;;28.80;54.40;;;;;;5075215;28;20457;-59
2023/06/22 10:28:51;;;;;;;12.80;11.50;;;28.60;55.00;;;;;;5075439;28;20450;-59
2023/06/22 10:31:18;;;;;;;11.80;10.60;;;28.40;55.30;;;;;;5075443;28;20963;-59
2023/06/22 10:33:45;;;;;;;13.60;12.20;;;28.30;55.70;;;;;;5075358;28;20503;-59
2023/06/22 10:36:11;;;;;;;13.60;12.20;;;28.30;56.10;;;;;;5075157;28;20470;-59
2023/06/22 10:38:38;;;;;;;13.17;11.87;;;28.30;56.10;;;;;;5075060;28;20464;-60
2023/06/22 10:41:05;;;;;;;12.43;11.27;;;28.30;56.20;;;;;;5074971;28;20452;-58
2023/06/22 10:43:32;;;;;;;15.87;12.00;;;28.40;56.20;;;;;;5074986;28;20940;-60
2023/06/22 10:46:00;;;;;;;14.50;12.93;;;28.50;56.00;;;;;;5074841;28;20468;-59
2023/06/22 10:48:27;;;;;;;13.10;11.90;;;28.70;55.70;;;;;;5074573;28;20456;-60
2023/06/22 10:50:54;;;;;;;13.10;11.80;;;28.80;55.60;;;;;;5074405;28;20451;-60
2023/06/22 10:53:21;;;;;;;11.50;10.47;;;28.90;55.40;;;;;;5074532;28;20488;-58
2023/06/22 10:55:48;;;;;;;13.17;11.83;;;29.10;55.10;;;;;;5074434;28;20982;-60
2023/06/22 10:58:15;;;;;;;12.90;11.57;;;29.30;55.00;;;;;;5076740;28;20452;-58
2023/06/22 11:00:42;;;;;;;11.37;10.33;;;29.30;54.90;;;;;;5074664;28;20959;-60
2023/06/22 11:03:10;;;;;;;13.00;11.70;;;29.30;54.90;;;;;;5074503;28;20959;-60
2023/06/22 11:05:36;;;;;;;13.50;11.97;;;29.50;54.80;;;;;;5074334;28;20447;-59
2023/06/22 11:08:03;;;;;;;13.97;12.67;;;29.50;54.50;;;;;;5074099;28;20533;-59
2023/06/22 11:10:30;;;;;;;13.33;12.17;;;29.50;54.50;;;;;;5074280;28;20463;-59
2023/06/22 11:12:57;;;;;;;13.03;11.73;;;29.40;54.60;;;;;;5074657;28;20506;-60
2023/06/22 11:15:24;;;;;;;13.33;12.03;;;29.40;54.80;;;;;;5074383;28;20461;-60
2023/06/22 11:17:51;;;;;;;12.37;11.30;;;29.50;54.60;;;;;;5074637;28;20532;-59
2023/06/22 11:20:19;;;;;;;11.60;10.50;;;29.60;54.40;;;;;;5073949;28;20443;-61
2023/06/22 11:22:46;;;;;;;14.10;12.60;;;29.80;54.10;;;;;;5074170;28;20448;-60
2023/06/22 11:25:13;;;;;;;14.77;13.20;;;29.90;53.80;;;;;;5074228;28;20490;-60
2023/06/22 11:27:40;;;;;;;14.43;13.07;;;29.80;53.80;;;;;;5073604;28;20468;-59
2023/06/22 11:30:08;;;;;;;13.53;12.33;;;29.70;53.80;;;;;;5074021;28;20860;-60
2023/06/22 11:32:35;;;;;;;16.00;12.70;;;29.60;54.00;;;;;;5073596;28;20482;-57
2023/06/22 11:35:02;;;;;;;13.33;12.13;;;29.50;54.20;;;;;;5073652;28;20448;-60
2023/06/22 11:37:30;;;;;;;13.03;11.60;;;29.30;54.30;;;;;;5074189;28;20467;-59
2023/06/22 11:39:58;;;;;;;17.53;12.97;;;29.10;54.70;;;;;;5074221;28;20816;-59
2023/06/22 11:42:25;;;;;;;12.83;11.73;;;28.90;55.10;;;;;;5073832;28;20444;-60
2023/06/22 11:44:52;;;;;;;13.93;12.30;;;28.90;55.80;;;;;;5073762;28;20905;-59
2023/06/22 11:47:18;;;;;;;12.27;11.20;;;29.10;55.10;;;;;;5074083;28;20469;-59
2023/06/22 11:49:45;;;;;;;16.10;12.30;;;29.30;54.60;;;;;;5073750;28;20944;-59
2023/06/22 11:52:12;;;;;;;13.70;12.57;;;29.50;54.20;;;;;;5073476;28;20484;-59
2023/06/22 11:54:40;;;;;;;13.73;12.07;;;29.80;53.70;;;;;;5073421;28;20908;-60
2023/06/22 11:57:07;;;;;;;12.83;11.63;;;30.10;53.20;;;;;;5073347;28;20469;-59
2023/06/22 11:59:33;;;;;;;12.47;11.40;;;30.60;52.20;;;;;;5073770;28;20441;-60
2023/06/22 12:02:00;;;;;;;13.60;12.43;;;30.90;51.50;;;;;;5073701;28;20566;-60
2023/06/22 12:04:27;;;;;;;12.77;11.57;;;31.30;50.60;;;;;;5074314;28;20445;-61
2023/06/22 12:06:54;;;;;;;11.03;10.13;;;31.80;49.60;;;;;;5073781;28;20992;-60
2023/06/22 12:09:21;;;;;;;12.63;11.43;;;32.10;49.00;;;;;;5073817;28;20453;-60
2023/06/22 12:11:49;;;;;;;13.33;12.03;;;32.20;48.70;;;;;;5073905;28;20453;-59
2023/06/22 12:14:16;;;;;;;11.90;10.90;;;31.90;48.70;;;;;;5073945;28;20512;-59
2023/06/22 12:16:43;;;;;;;12.37;11.27;;;31.50;49.30;;;;;;5073341;28;20455;-59
2023/06/22 12:19:10;;;;;;;11.73;10.83;;;31.30;49.80;;;;;;5074161;28;20520;-60
2023/06/22 12:21:39;;;;;;;11.13;10.23;;;31.20;50.20;;;;;;5073809;28;20484;-60
2023/06/22 12:24:06;;;;;;;12.00;10.80;;;31.00;50.40;;;;;;5073510;28;20446;-61
2023/06/22 12:26:33;;;;;;;11.73;10.50;;;30.80;50.60;;;;;;5073082;28;20472;-58
2023/06/22 12:29:01;;;;;;;11.97;10.50;;;30.70;51.00;;;;;;5073587;28;20449;-59
2023/06/22 12:31:28;;;;;;;11.17;10.17;;;30.60;51.20;;;;;;5073957;28;20536;-60
2023/06/22 12:33:54;;;;;;;12.80;11.50;;;30.50;51.30;;;;;;5077499;28;20487;-59